sensor_id;sensor_type;location;lat;lon;timestamp;pressure;altitude;pressure_sealevel;temperature;humidity
13015;BME280;6573;57.696;11.950;2023-02-01T00:01:40;99302.88;;;7.55;100.00
13015;BME280;6573;57.696;11.950;2023-02-01T00:04:09;99296.06;;;7.45;100.00
13015;BME280;6573;57.696;11.950;2023-02-01T00:06:39;99299.50;;;7.47;100.00
13015;BME280;6573;57.696;11.950;2023-02-01T00:09:07;99290.88;;;7.42;100.00
13015;BME280;6573;57.696;11.950;2023-02-01T00:11:35;99299.66;;;7.38;100.00
13015;BME280;6573;57.696;11.950;2023-02-01T00:14:04;99299.66;;;7.38;100.00
13015;BME280;6573;57.696;11.950;2023-02-01T00:16:32;99299.78;;;7.29;100.00
13015;BME280;6573;57.696;11.950;2023-02-01T00:19:03;99303.41;;;7.19;100.00
13015;BME280;6573;57.696;11.950;2023-02-01T00:21:32;99301.47;;;7.33;100.00
13015;BME280;6573;57.696;11.950;2023-02-01T00:24:03;99296.28;;;7.30;100.00
13015;BME280;6573;57.696;11.950;2023-02-01T00:26:33;99302.53;;;7.22;100.00
13015;BME280;6573;57.696;11.950;2023-02-01T00:29:05;99301.69;;;7.18;100.00
13015;BME280;6573;57.696;11.950;2023-02-01T00:31:33;99294.59;;;7.26;100.00
13015;BME280;6573;57.696;11.950;2023-02-01T00:34:02;99300.00;;;7.14;100.00
13015;BME280;6573;57.696;11.950;2023-02-01T00:36:30;99294.56;;;7.29;100.00
13015;BME280;6573;57.696;11.950;2023-02-01T00:38:59;99292.09;;;7.18;100.00
13015;BME280;6573;57.696;11.950;2023-02-01T00:41:28;99296.25;;;7.33;100.00
13015;BME280;6573;57.696;11.950;2023-02-01T00:43:57;99293.66;;;7.32;100.00
13015;BME280;6573;57.696;11.950;2023-02-01T00:46:25;99283.97;;;7.38;100.00
13015;BME280;6573;57.696;11.950;2023-02-01T00:48:54;99296.06;;;7.45;100.00
13015;BME280;6573;57.696;11.950;2023-02-01T00:51:25;99290.97;;;7.36;100.00
13015;BME280;6573;57.696;11.950;2023-02-01T00:53:55;99280.28;;;7.51;100.00
13015;BME280;6573;57.696;11.950;2023-02-01T00:56:23;99296.84;;;7.50;100.00
13015;BME280;6573;57.696;11.950;2023-02-01T00:58:56;99296.94;;;7.46;100.00
13015;BME280;6573;57.696;11.950;2023-02-01T01:01:26;99290.88;;;7.42;100.00
13015;BME280;6573;57.696;11.950;2023-02-01T01:03:56;99290.78;;;7.48;100.00
13015;BME280;6573;57.696;11.950;2023-02-01T01:06:30;99276.75;;;7.52;100.00
13015;BME280;6573;57.696;11.950;2023-02-01T01:09:00;99298.59;;;7.51;100.00
13015;BME280;6573;57.696;11.950;2023-02-01T01:11:30;99292.38;;;7.58;100.00
13015;BME280;6573;57.696;11.950;2023-02-01T01:14:00;99292.41;;;7.55;100.00
13015;BME280;6573;57.696;11.950;2023-02-01T01:16:30;99311.53;;;7.60;100.00
13015;BME280;6573;57.696;11.950;2023-02-01T01:19:00;99302.88;;;7.55;100.00
13015;BME280;6573;57.696;11.950;2023-02-01T01:21:29;99294.69;;;7.78;100.00
13015;BME280;6573;57.696;11.950;2023-02-01T01:23:57;99307.97;;;7.66;100.00
13015;BME280;6573;57.696;11.950;2023-02-01T01:26:30;99294.19;;;7.53;100.00
13015;BME280;6573;57.696;11.950;2023-02-01T01:29:00;99297.72;;;7.49;100.00
13015;BME280;6573;57.696;11.950;2023-02-01T01:31:29;99296.84;;;7.50;100.00
13015;BME280;6573;57.696;11.950;2023-02-01T01:33:59;99295.75;;;7.66;100.00
13015;BME280;6573;57.696;11.950;2023-02-01T01:36:28;99293.94;;;7.71;100.00
13015;BME280;6573;57.696;11.950;2023-02-01T01:38:57;99301.22;;;7.51;100.00
13015;BME280;6573;57.696;11.950;2023-02-01T01:41:28;99282.22;;;7.37;100.00
13015;BME280;6573;57.696;11.950;2023-02-01T01:44:03;99299.28;;;7.62;100.00
13015;BME280;6573;57.696;11.950;2023-02-01T01:46:34;99308.56;;;7.81;100.00
13015;BME280;6573;57.696;11.950;2023-02-01T01:49:06;99292.41;;;7.55;100.00
13015;BME280;6573;57.696;11.950;2023-02-01T01:51:42;99299.16;;;7.70;100.00
13015;BME280;6573;57.696;11.950;2023-02-01T01:54:15;99306.34;;;7.57;100.00
13015;BME280;6573;57.696;11.950;2023-02-01T01:56:48;99299.22;;;7.68;100.00
13015;BME280;6573;57.696;11.950;2023-02-01T01:59:19;99297.47;;;7.67;100.00
13015;BME280;6573;57.696;11.950;2023-02-01T02:01:49;99311.16;;;7.84;100.00
13015;BME280;6573;57.696;11.950;2023-02-01T02:04:19;99322.72;;;7.71;100.00
13015;BME280;6573;57.696;11.950;2023-02-01T02:06:54;99323.47;;;7.76;100.00
13015;BME280;6573;57.696;11.950;2023-02-01T02:09:25;99335.63;;;7.83;100.00
13015;BME280;6573;57.696;11.950;2023-02-01T02:11:54;99323.66;;;7.64;100.00
13015;BME280;6573;57.696;11.950;2023-02-01T02:14:25;99337.69;;;7.60;100.00
13015;BME280;6573;57.696;11.950;2023-02-01T02:17:23;99345.28;;;7.78;100.00
13015;BME280;6573;57.696;11.950;2023-02-01T02:20:31;99349.66;;;7.76;100.00
13015;BME280;6573;57.696;11.950;2023-02-01T02:26:52;99327.53;;;7.97;100.00
13015;BME280;6573;57.696;11.950;2023-02-01T02:29:46;99337.28;;;7.88;100.00
13015;BME280;6573;57.696;11.950;2023-02-01T02:32:47;99322.72;;;7.71;100.00
13015;BME280;6573;57.696;11.950;2023-02-01T02:35:26;99332.25;;;7.75;100.00
13015;BME280;6573;57.696;11.950;2023-02-01T02:38:05;99329.59;;;7.77;100.00
13015;BME280;6573;57.696;11.950;2023-02-01T02:40:44;99328.91;;;7.64;100.00
13015;BME280;6573;57.696;11.950;2023-02-01T02:43:21;99314.13;;;7.63;100.00
13015;BME280;6573;57.696;11.950;2023-02-01T02:46:15;99318.22;;;7.79;100.00
13015;BME280;6573;57.696;11.950;2023-02-01T02:49:07;99328.03;;;7.65;100.00
13015;BME280;6573;57.696;11.950;2023-02-01T02:51:42;99316.63;;;7.69;100.00
13015;BME280;6573;57.696;11.950;2023-02-01T02:54:33;99330.50;;;7.74;100.00
13015;BME280;6573;57.696;11.950;2023-02-01T02:57:22;99325.38;;;7.68;100.00
13015;BME280;6573;57.696;11.950;2023-02-01T03:00:12;99318.22;;;7.79;100.00
13015;BME280;6573;57.696;11.950;2023-02-01T03:03:00;99321.63;;;7.84;100.00
13015;BME280;6573;57.696;11.950;2023-02-01T03:05:47;99305.94;;;7.81;100.00
13015;BME280;6573;57.696;11.950;2023-02-01T03:08:20;99312.94;;;7.82;100.00
13015;BME280;6573;57.696;11.950;2023-02-01T03:10:53;99314.91;;;7.68;100.00
13015;BME280;6573;57.696;11.950;2023-02-01T03:13:35;99305.16;;;7.78;100.00
13015;BME280;6573;57.696;11.950;2023-02-01T03:16:09;99299.16;;;7.71;100.00
13015;BME280;6573;57.696;11.950;2023-02-01T03:18:46;99311.06;;;7.89;100.00
13015;BME280;6573;57.696;11.950;2023-02-01T03:21:19;99311.16;;;7.84;100.00
13015;BME280;6573;57.696;11.950;2023-02-01T03:24:01;99316.47;;;7.80;100.00
13015;BME280;6573;57.696;11.950;2023-02-01T03:26:31;99293.78;;;7.80;100.00
13015;BME280;6573;57.696;11.950;2023-02-01T03:29:08;99311.16;;;7.84;100.00
13015;BME280;6573;57.696;11.950;2023-02-01T03:31:40;99307.66;;;7.86;100.00
13015;BME280;6573;57.696;11.950;2023-02-01T03:34:10;99304.19;;;7.83;100.00
13015;BME280;6573;57.696;11.950;2023-02-01T03:36:42;99308.31;;;7.97;100.00
13015;BME280;6573;57.696;11.950;2023-02-01T03:39:19;99293.53;;;7.96;100.00
13015;BME280;6573;57.696;11.950;2023-02-01T03:41:51;99299.63;;;7.95;100.00
13015;BME280;6573;57.696;11.950;2023-02-01T03:44:24;99317.22;;;7.88;100.00
13015;BME280;6573;57.696;11.950;2023-02-01T03:46:57;99307.66;;;7.86;100.00
13015;BME280;6573;57.696;11.950;2023-02-01T03:49:29;99316.41;;;7.81;100.00
13015;BME280;6573;57.696;11.950;2023-02-01T03:52:00;99319.78;;;7.90;100.00
13015;BME280;6573;57.696;11.950;2023-02-01T03:54:32;99325.81;;;7.96;100.00
13015;BME280;6573;57.696;11.950;2023-02-01T03:57:06;99315.09;;;8.10;100.00
13015;BME280;6573;57.696;11.950;2023-02-01T03:59:38;99326.53;;;8.06;100.00
13015;BME280;6573;57.696;11.950;2023-02-01T04:02:07;99326.72;;;7.94;100.00
13015;BME280;6573;57.696;11.950;2023-02-01T04:04:36;99314.47;;;7.96;100.00
13015;BME280;6573;57.696;11.950;2023-02-01T04:07:05;99315.16;;;8.07;100.00
13015;BME280;6573;57.696;11.950;2023-02-01T04:09:35;99327.53;;;7.97;100.00
13015;BME280;6573;57.696;11.950;2023-02-01T04:12:06;99322.94;;;8.10;100.00
13015;BME280;6573;57.696;11.950;2023-02-01T04:14:37;99313.34;;;8.10;100.00
13015;BME280;6573;57.696;11.950;2023-02-01T04:17:06;99303.97;;;7.99;100.00
13015;BME280;6573;57.696;11.950;2023-02-01T04:19:35;99306.31;;;8.12;100.00
13015;BME280;6573;57.696;11.950;2023-02-01T04:22:05;99310.81;;;8.06;100.00
13015;BME280;6573;57.696;11.950;2023-02-01T04:24:35;99315.88;;;8.15;100.00
13015;BME280;6573;57.696;11.950;2023-02-01T04:27:04;99297.78;;;8.03;100.00
13015;BME280;6573;57.696;11.950;2023-02-01T04:29:32;99308.25;;;8.03;100.00
13015;BME280;6573;57.696;11.950;2023-02-01T04:32:01;99304.00;;;7.96;100.00
13015;BME280;6573;57.696;11.950;2023-02-01T04:34:29;99300.47;;;7.97;100.00
13015;BME280;6573;57.696;11.950;2023-02-01T04:36:57;99298.44;;;8.14;100.00
13015;BME280;6573;57.696;11.950;2023-02-01T04:39:29;99298.50;;;8.11;100.00
13015;BME280;6573;57.696;11.950;2023-02-01T04:41:59;99295.19;;;8.00;100.00
13015;BME280;6573;57.696;11.950;2023-02-01T04:44:27;99298.75;;;7.96;100.00
13015;BME280;6573;57.696;11.950;2023-02-01T04:46:56;99286.59;;;7.92;100.00
13015;BME280;6573;57.696;11.950;2023-02-01T04:49:30;99283.06;;;7.96;100.00
13015;BME280;6573;57.696;11.950;2023-02-01T04:51:58;99276.06;;;7.95;100.00
13015;BME280;6573;57.696;11.950;2023-02-01T04:54:26;99284.72;;;8.00;100.00
13015;BME280;6573;57.696;11.950;2023-02-01T04:56:55;99281.22;;;8.01;100.00
13015;BME280;6573;57.696;11.950;2023-02-01T04:59:25;99272.31;;;8.11;100.00
13015;BME280;6573;57.696;11.950;2023-02-01T05:01:58;99274.06;;;8.10;100.00
13015;BME280;6573;57.696;11.950;2023-02-01T05:04:28;99274.19;;;8.03;100.00
13015;BME280;6573;57.696;11.950;2023-02-01T05:06:59;99277.81;;;7.96;100.00
13015;BME280;6573;57.696;11.950;2023-02-01T05:09:28;99276.88;;;8.00;100.00
13015;BME280;6573;57.696;11.950;2023-02-01T05:11:58;99279.41;;;8.06;100.00
13015;BME280;6573;57.696;11.950;2023-02-01T05:14:46;99288.25;;;7.99;100.00
13015;BME280;6573;57.696;11.950;2023-02-01T05:17:14;99281.47;;;7.86;100.00
13015;BME280;6573;57.696;11.950;2023-02-01T05:19:42;99292.56;;;8.00;100.00
13015;BME280;6573;57.696;11.950;2023-02-01T05:22:10;99293.72;;;7.83;100.00
13015;BME280;6573;57.696;11.950;2023-02-01T05:24:39;99294.69;;;7.78;100.00
13015;BME280;6573;57.696;11.950;2023-02-01T05:27:09;99289.63;;;7.67;100.00
13015;BME280;6573;57.696;11.950;2023-02-01T05:29:38;99291.34;;;7.67;100.00
13015;BME280;6573;57.696;11.950;2023-02-01T05:32:09;99296.47;;;7.74;100.00
13015;BME280;6573;57.696;11.950;2023-02-01T05:34:48;99302.47;;;7.82;100.00
13015;BME280;6573;57.696;11.950;2023-02-01T05:37:16;99289.69;;;7.63;100.00
13015;BME280;6573;57.696;11.950;2023-02-01T05:39:45;99294.50;;;7.90;100.00
13015;BME280;6573;57.696;11.950;2023-02-01T05:42:13;99295.59;;;7.75;100.00
13015;BME280;6573;57.696;11.950;2023-02-01T05:44:42;99292.03;;;7.79;100.00
13015;BME280;6573;57.696;11.950;2023-02-01T05:47:15;99293.56;;;7.93;100.00
13015;BME280;6573;57.696;11.950;2023-02-01T05:49:44;99288.25;;;7.99;100.00
13015;BME280;6573;57.696;11.950;2023-02-01T05:52:12;99293.31;;;8.08;100.00
13015;BME280;6573;57.696;11.950;2023-02-01T05:54:40;99288.16;;;8.03;100.00
13015;BME280;6573;57.696;11.950;2023-02-01T05:57:09;99292.75;;;7.89;100.00
13015;BME280;6573;57.696;11.950;2023-02-01T05:59:37;99297.44;;;7.70;100.00
13015;BME280;6573;57.696;11.950;2023-02-01T06:02:07;99297.28;;;7.79;100.00
13015;BME280;6573;57.696;11.950;2023-02-01T06:04:38;99293.81;;;7.77;100.00
13015;BME280;6573;57.696;11.950;2023-02-01T06:07:07;99271.13;;;7.76;100.00
13015;BME280;6573;57.696;11.950;2023-02-01T06:09:37;99293.47;;;7.99;100.00
13015;BME280;6573;57.696;11.950;2023-02-01T06:12:06;99292.56;;;8.01;100.00
13015;BME280;6573;57.696;11.950;2023-02-01T06:14:34;99283.94;;;7.96;100.00
13015;BME280;6573;57.696;11.950;2023-02-01T06:17:03;99288.75;;;7.68;100.00
13015;BME280;6573;57.696;11.950;2023-02-01T06:19:32;99278.13;;;7.77;100.00
13015;BME280;6573;57.696;11.950;2023-02-01T06:22:02;99274.50;;;7.84;100.00
13015;BME280;6573;57.696;11.950;2023-02-01T06:24:33;99270.59;;;8.10;100.00
13015;BME280;6573;57.696;11.950;2023-02-01T06:27:02;99281.19;;;8.04;100.00
13015;BME280;6573;57.696;11.950;2023-02-01T06:29:30;99275.72;;;8.16;100.00
13015;BME280;6573;57.696;11.950;2023-02-01T06:32:00;99283.50;;;8.20;100.00
13015;BME280;6573;57.696;11.950;2023-02-01T06:34:28;99289.66;;;8.18;100.00
13015;BME280;6573;57.696;11.950;2023-02-01T06:36:57;99272.53;;;7.99;100.00
13015;BME280;6573;57.696;11.950;2023-02-01T06:39:29;99286.59;;;7.92;100.00
13015;BME280;6573;57.696;11.950;2023-02-01T06:41:57;99290.22;;;7.84;100.00
13015;BME280;6573;57.696;11.950;2023-02-01T06:44:25;99300.56;;;7.94;100.00
13015;BME280;6573;57.696;11.950;2023-02-01T06:46:54;99299.81;;;7.86;100.00
13015;BME280;6573;57.696;11.950;2023-02-01T06:49:25;99304.16;;;7.85;100.00
13015;BME280;6573;57.696;11.950;2023-02-01T06:51:57;99276.19;;;7.89;100.00
13015;BME280;6573;57.696;11.950;2023-02-01T06:54:28;99297.06;;;7.92;100.00
13015;BME280;6573;57.696;11.950;2023-02-01T06:56:59;99305.63;;;8.03;100.00
13015;BME280;6573;57.696;11.950;2023-02-01T06:59:27;99300.69;;;7.84;100.00
13015;BME280;6573;57.696;11.950;2023-02-01T07:01:55;99306.94;;;7.76;100.00
13015;BME280;6573;57.696;11.950;2023-02-01T07:04:30;99308.09;;;7.58;100.00
13015;BME280;6573;57.696;11.950;2023-02-01T07:06:58;99308.88;;;7.62;100.00
13015;BME280;6573;57.696;11.950;2023-02-01T07:09:28;99299.25;;;7.65;100.00
13015;BME280;6573;57.696;11.950;2023-02-01T07:11:56;99289.84;;;7.52;100.00
13015;BME280;6573;57.696;11.950;2023-02-01T07:14:25;99309.91;;;7.52;100.00
13015;BME280;6573;57.696;11.950;2023-02-01T07:16:53;99287.00;;;7.67;100.00
13015;BME280;6573;57.696;11.950;2023-02-01T07:19:22;99302.16;;;7.44;100.00
13015;BME280;6573;57.696;11.950;2023-02-01T07:21:51;99295.91;;;7.54;100.00
13015;BME280;6573;57.696;11.950;2023-02-01T07:24:20;99297.56;;;7.61;100.00
13015;BME280;6573;57.696;11.950;2023-02-01T07:26:50;99297.50;;;7.64;100.00
13015;BME280;6573;57.696;11.950;2023-02-01T07:29:19;99285.19;;;7.72;100.00
13015;BME280;6573;57.696;11.950;2023-02-01T07:31:47;99290.38;;;7.75;100.00
13015;BME280;6573;57.696;11.950;2023-02-01T07:34:16;99293.19;;;7.62;100.00
13015;BME280;6573;57.696;11.950;2023-02-01T07:36:45;99285.38;;;7.60;100.00
13015;BME280;6573;57.696;11.950;2023-02-01T07:39:13;99291.63;;;7.50;100.00
13015;BME280;6573;57.696;11.950;2023-02-01T07:41:42;99292.34;;;7.61;100.00
13015;BME280;6573;57.696;11.950;2023-02-01T07:44:12;99290.81;;;7.45;100.00
13015;BME280;6573;57.696;11.950;2023-02-01T07:46:40;99285.59;;;7.45;100.00
13015;BME280;6573;57.696;11.950;2023-02-01T07:49:10;99295.78;;;7.63;100.00
13015;BME280;6573;57.696;11.950;2023-02-01T07:51:43;99280.09;;;7.63;100.00
13015;BME280;6573;57.696;11.950;2023-02-01T07:54:12;99288.69;;;7.71;100.00
13015;BME280;6573;57.696;11.950;2023-02-01T07:56:40;99290.63;;;7.57;100.00
13015;BME280;6573;57.696;11.950;2023-02-01T07:59:09;99292.34;;;7.61;100.00
13015;BME280;6573;57.696;11.950;2023-02-01T08:01:43;99286.97;;;7.70;100.00
13015;BME280;6573;57.696;11.950;2023-02-01T08:04:12;99293.03;;;7.72;100.00
13015;BME280;6573;57.696;11.950;2023-02-01T08:06:40;99294.09;;;7.59;100.00
13015;BME280;6573;57.696;11.950;2023-02-01T08:09:10;99299.06;;;7.77;100.00
13015;BME280;6573;57.696;11.950;2023-02-01T08:11:39;99303.59;;;7.65;100.00
13015;BME280;6573;57.696;11.950;2023-02-01T08:14:07;99295.63;;;7.72;100.00
13015;BME280;6573;57.696;11.950;2023-02-01T08:16:36;99291.13;;;7.83;100.00
13015;BME280;6573;57.696;11.950;2023-02-01T08:19:07;99291.94;;;7.86;100.00
13015;BME280;6573;57.696;11.950;2023-02-01T08:21:36;99305.31;;;7.69;100.00
13015;BME280;6573;57.696;11.950;2023-02-01T08:24:05;99295.75;;;7.66;100.00
13015;BME280;6573;57.696;11.950;2023-02-01T08:26:34;99300.59;;;7.91;100.00
13015;BME280;6573;57.696;11.950;2023-02-01T08:29:05;99306.78;;;7.85;100.00
13015;BME280;6573;57.696;11.950;2023-02-01T08:31:33;99314.75;;;7.77;100.00
13015;BME280;6573;57.696;11.950;2023-02-01T08:34:02;99300.63;;;7.88;100.00
13015;BME280;6573;57.696;11.950;2023-02-01T08:36:35;99301.22;;;8.05;100.00
13015;BME280;6573;57.696;11.950;2023-02-01T08:39:04;99301.84;;;8.19;100.00
13015;BME280;6573;57.696;11.950;2023-02-01T08:41:36;99299.44;;;8.08;100.00
13015;BME280;6573;57.696;11.950;2023-02-01T08:44:04;99294.16;;;8.10;100.00
13015;BME280;6573;57.696;11.950;2023-02-01T08:46:33;99308.69;;;8.29;100.00
13015;BME280;6573;57.696;11.950;2023-02-01T08:49:02;99307.69;;;8.36;100.00
13015;BME280;6573;57.696;11.950;2023-02-01T08:51:30;99311.97;;;8.40;100.00
13015;BME280;6573;57.696;11.950;2023-02-01T08:54:01;99301.78;;;8.22;100.00
13015;BME280;6573;57.696;11.950;2023-02-01T08:56:30;99319.50;;;8.08;100.00
13015;BME280;6573;57.696;11.950;2023-02-01T08:58:58;99300.25;;;8.09;100.00
13015;BME280;6573;57.696;11.950;2023-02-01T09:01:29;99311.28;;;8.29;100.00
13015;BME280;6573;57.696;11.950;2023-02-01T09:03:58;99306.00;;;8.33;100.00
13015;BME280;6573;57.696;11.950;2023-02-01T09:06:26;99312.06;;;8.34;100.00
13015;BME280;6573;57.696;11.950;2023-02-01T09:08:55;99312.03;;;8.37;100.00
13015;BME280;6573;57.696;11.950;2023-02-01T09:11:28;99315.56;;;8.36;100.00
13015;BME280;6573;57.696;11.950;2023-02-01T09:14:01;99299.75;;;8.39;100.00
13015;BME280;6573;57.696;11.950;2023-02-01T09:16:29;99306.09;;;8.26;100.00
13015;BME280;6573;57.696;11.950;2023-02-01T09:18:58;99299.72;;;7.90;100.00
13015;BME280;6573;57.696;11.950;2023-02-01T09:21:46;99293.56;;;7.93;100.00
13015;BME280;6573;57.696;11.950;2023-02-01T09:24:15;99296.78;;;8.10;100.00
13015;BME280;6573;57.696;11.950;2023-02-01T09:26:48;99297.47;;;8.21;100.00
13015;BME280;6573;57.696;11.950;2023-02-01T09:29:19;99298.25;;;8.26;100.00
13015;BME280;6573;57.696;11.950;2023-02-01T09:31:47;99298.97;;;8.35;100.00
13015;BME280;6573;57.696;11.950;2023-02-01T09:34:30;99295.56;;;8.29;100.00
13015;BME280;6573;57.696;11.950;2023-02-01T09:36:58;99296.56;;;8.22;100.00
13015;BME280;6573;57.696;11.950;2023-02-01T09:39:29;99292.81;;;8.38;100.00
13015;BME280;6573;57.696;11.950;2023-02-01T09:42:10;99285.09;;;8.30;100.00
13015;BME280;6573;57.696;11.950;2023-02-01T09:45:01;99292.88;;;8.35;100.00
13015;BME280;6573;57.696;11.950;2023-02-01T09:47:34;99282.19;;;8.44;100.00
13015;BME280;6573;57.696;11.950;2023-02-01T09:50:12;99292.53;;;8.53;100.00
13015;BME280;6573;57.696;11.950;2023-02-01T09:52:52;99295.34;;;8.41;100.00
13015;BME280;6573;57.696;11.950;2023-02-01T09:55:30;99297.97;;;8.41;100.00
13015;BME280;6573;57.696;11.950;2023-02-01T09:58:06;99301.44;;;8.43;100.00
13015;BME280;6573;57.696;11.950;2023-02-01T10:00:37;99306.09;;;8.27;100.00
13015;BME280;6573;57.696;11.950;2023-02-01T10:03:11;99303.44;;;8.29;100.00
13015;BME280;6573;57.696;11.950;2023-02-01T10:06:04;99308.44;;;8.41;100.00
13015;BME280;6573;57.696;11.950;2023-02-01T10:08:45;99304.84;;;8.48;100.00
13015;BME280;6573;57.696;11.950;2023-02-01T10:11:32;99301.31;;;8.49;100.00
13015;BME280;6573;57.696;11.950;2023-02-01T10:14:31;99304.72;;;8.54;100.00
13015;BME280;6573;57.696;11.950;2023-02-01T10:17:13;99311.81;;;8.49;100.00
13015;BME280;6573;57.696;11.950;2023-02-01T10:19:53;99309.44;;;8.35;100.00
13015;BME280;6573;57.696;11.950;2023-02-01T10:22:38;99307.47;;;8.48;100.00
13015;BME280;6573;57.696;11.950;2023-02-01T10:25:31;99308.13;;;8.59;100.00
13015;BME280;6573;57.696;11.950;2023-02-01T10:28:04;99306.31;;;8.63;100.00
13015;BME280;6573;57.696;11.950;2023-02-01T10:30:40;99310.25;;;8.39;100.00
13015;BME280;6573;57.696;11.950;2023-02-01T10:33:16;99315.47;;;8.39;100.00
13015;BME280;6573;57.696;11.950;2023-02-01T10:35:45;99318.94;;;8.41;100.00
13015;BME280;6573;57.696;11.950;2023-02-01T10:38:20;99313.69;;;8.41;100.00
13015;BME280;6573;57.696;11.950;2023-02-01T10:40:53;99315.34;;;8.48;100.00
13015;BME280;6573;57.696;11.950;2023-02-01T10:43:24;99305.13;;;8.33;100.00
13015;BME280;6573;57.696;11.950;2023-02-01T10:45:54;99315.25;;;8.51;100.00
13015;BME280;6573;57.696;11.950;2023-02-01T10:48:25;99314.22;;;8.60;100.00
13015;BME280;6573;57.696;11.950;2023-02-01T10:51:03;99304.66;;;8.57;100.00
13015;BME280;6573;57.696;11.950;2023-02-01T10:53:36;99309.81;;;8.63;100.00
13015;BME280;6573;57.696;11.950;2023-02-01T10:56:08;99317.97;;;8.92;100.00
13015;BME280;6573;57.696;11.950;2023-02-01T10:58:43;99307.59;;;8.86;100.00
13015;BME280;6573;57.696;11.950;2023-02-01T11:01:19;99310.25;;;8.83;100.00
13015;BME280;6573;57.696;11.950;2023-02-01T11:03:56;99298.94;;;8.81;100.00
13015;BME280;6573;57.696;11.950;2023-02-01T11:06:28;99283.22;;;8.81;100.00
13015;BME280;6573;57.696;11.950;2023-02-01T11:08:58;99293.66;;;8.84;100.00
13015;BME280;6573;57.696;11.950;2023-02-01T11:11:31;99305.41;;;9.06;100.00
13015;BME280;6573;57.696;11.950;2023-02-01T11:14:02;99293.94;;;9.10;100.00
13015;BME280;6573;57.696;11.950;2023-02-01T11:16:40;99305.97;;;8.79;100.00
13015;BME280;6573;57.696;11.950;2023-02-01T11:19:17;99305.63;;;8.97;100.00
13015;BME280;6573;57.696;11.950;2023-02-01T11:21:49;99296.13;;;8.92;100.00
13015;BME280;6573;57.696;11.950;2023-02-01T11:24:22;99305.41;;;9.06;100.00
13015;BME280;6573;57.696;11.950;2023-02-01T11:26:54;99303.78;;;9.02;100.00
13015;BME280;6573;57.696;11.950;2023-02-01T11:29:25;99298.13;;;9.21;100.00
13015;BME280;6573;57.696;11.950;2023-02-01T11:31:59;99293.00;;;9.15;100.00
13015;BME280;6573;57.696;11.950;2023-02-01T11:34:38;99308.69;;;9.18;100.00
13015;BME280;6573;57.696;11.950;2023-02-01T11:37:14;99301.78;;;9.13;100.00
13015;BME280;6573;57.696;11.950;2023-02-01T11:39:53;99309.06;;;8.99;100.00
13015;BME280;6573;57.696;11.950;2023-02-01T11:42:23;99307.31;;;8.98;100.00
13015;BME280;6573;57.696;11.950;2023-02-01T11:45:15;99311.78;;;8.95;100.00
13015;BME280;6573;57.696;11.950;2023-02-01T11:47:51;99302.09;;;8.98;100.00
13015;BME280;6573;57.696;11.950;2023-02-01T11:50:28;99300.88;;;9.15;100.00
13015;BME280;6573;57.696;11.950;2023-02-01T11:53:15;99308.69;;;9.18;100.00
13015;BME280;6573;57.696;11.950;2023-02-01T11:55:56;99307.44;;;9.35;100.00
13015;BME280;6573;57.696;11.950;2023-02-01T11:58:50;99296.84;;;8.98;100.00
13015;BME280;6573;57.696;11.950;2023-02-01T12:01:54;99305.16;;;9.19;100.00
13015;BME280;6573;57.696;11.950;2023-02-01T12:04:53;99306.69;;;9.29;100.00
13015;BME280;6573;57.696;11.950;2023-02-01T12:07:32;99303.78;;;9.02;100.00
13015;BME280;6573;57.696;11.950;2023-02-01T12:10:17;99295.75;;;9.10;100.00
13015;BME280;6573;57.696;11.950;2023-02-01T12:13:01;99300.38;;;8.97;100.00
13015;BME280;6573;57.696;11.950;2023-02-01T12:15:41;99289.84;;;9.00;100.00
13015;BME280;6573;57.696;11.950;2023-02-01T12:21:44;99272.47;;;8.95;100.00
13015;BME280;6573;57.696;11.950;2023-02-01T12:24:39;99272.16;;;9.08;100.00
13015;BME280;6573;57.696;11.950;2023-02-01T12:27:31;99259.75;;;9.17;100.00
13015;BME280;6573;57.696;11.950;2023-02-01T12:33:04;99269.47;;;9.11;100.00
13015;BME280;6573;57.696;11.950;2023-02-01T12:35:51;99268.75;;;9.03;100.00
13015;BME280;6573;57.696;11.950;2023-02-01T12:38:46;99269.97;;;9.29;100.00
13015;BME280;6573;57.696;11.950;2023-02-01T12:41:49;99262.91;;;9.31;100.00
13015;BME280;6573;57.696;11.950;2023-02-01T12:44:33;99260.84;;;9.45;100.00
13015;BME280;6573;57.696;11.950;2023-02-01T12:47:12;99251.06;;;9.51;100.00
13015;BME280;6573;57.696;11.950;2023-02-01T12:49:48;99253.28;;;9.68;100.00
13015;BME280;6573;57.696;11.950;2023-02-01T12:52:30;99249.13;;;9.59;100.00
13015;BME280;6573;57.696;11.950;2023-02-01T12:55:10;99259.56;;;9.62;100.00
13015;BME280;6573;57.696;11.950;2023-02-01T12:57:50;99267.63;;;9.53;100.00
13015;BME280;6573;57.696;11.950;2023-02-01T13:00:26;99267.63;;;9.55;100.00
13015;BME280;6573;57.696;11.950;2023-02-01T13:03:05;99255.16;;;9.63;100.00
13015;BME280;6573;57.696;11.950;2023-02-01T13:05:46;99269.97;;;9.65;100.00
13015;BME280;6573;57.696;11.950;2023-02-01T13:08:19;99266.59;;;9.60;100.00
13015;BME280;6573;57.696;11.950;2023-02-01T13:10:57;99254.44;;;9.56;100.00
13015;BME280;6573;57.696;11.950;2023-02-01T13:13:32;99265.88;;;9.54;100.00
13015;BME280;6573;57.696;11.950;2023-02-01T13:16:14;99263.38;;;9.48;100.00
13015;BME280;6573;57.696;11.950;2023-02-01T13:18:49;99259.94;;;9.46;100.00
13015;BME280;6573;57.696;11.950;2023-02-01T13:21:23;99261.63;;;9.48;100.00
13015;BME280;6573;57.696;11.950;2023-02-01T13:23:53;99264.22;;;9.50;100.00
13015;BME280;6573;57.696;11.950;2023-02-01T13:26:23;99267.75;;;9.49;100.00
13015;BME280;6573;57.696;11.950;2023-02-01T13:28:57;99270.59;;;9.40;100.00
13015;BME280;6573;57.696;11.950;2023-02-01T13:31:45;99259.47;;;9.29;100.00
13015;BME280;6573;57.696;11.950;2023-02-01T13:34:51;99254.63;;;9.10;100.00
13015;BME280;6573;57.696;11.950;2023-02-01T13:37:40;99247.72;;;9.06;100.00
13015;BME280;6573;57.696;11.950;2023-02-01T13:40:35;99246.41;;;8.86;100.00
13015;BME280;6573;57.696;11.950;2023-02-01T13:43:12;99239.91;;;9.03;100.00
13015;BME280;6573;57.696;11.950;2023-02-01T13:45:53;99239.63;;;9.17;100.00